sensor_id;sensor_type;location;lat;lon;timestamp;pressure;altitude;pressure_sealevel;temperature;humidity
69219;BME280;56232;53.384;-2.732;2022-08-21T00:01:25;100895.88;;;16.08;45.44
69219;BME280;56232;53.384;-2.732;2022-08-21T00:03:49;100893.39;;;16.12;45.74
69219;BME280;56232;53.384;-2.732;2022-08-21T00:06:16;100892.17;;;16.70;45.93
69219;BME280;56232;53.384;-2.732;2022-08-21T00:08:40;100891.42;;;16.31;46.38
69219;BME280;56232;53.384;-2.732;2022-08-21T00:11:07;100883.03;;;16.24;46.41
69219;BME280;56232;53.384;-2.732;2022-08-21T00:13:31;100880.82;;;15.75;46.54
69219;BME280;56232;53.384;-2.732;2022-08-21T00:15:57;100880.29;;;16.16;46.80
69219;BME280;56232;53.384;-2.732;2022-08-21T00:18:23;100882.94;;;17.22;46.95
69219;BME280;56232;53.384;-2.732;2022-08-21T00:20:48;100884.16;;;16.07;47.07
69219;BME280;56232;53.384;-2.732;2022-08-21T00:23:15;100887.84;;;16.01;47.26
69219;BME280;56232;53.384;-2.732;2022-08-21T00:25:41;100882.25;;;16.11;47.45
69219;BME280;56232;53.384;-2.732;2022-08-21T00:28:05;100882.11;;;16.22;47.28
69219;BME280;56232;53.384;-2.732;2022-08-21T00:30:31;100877.53;;;16.84;47.42
69219;BME280;56232;53.384;-2.732;2022-08-21T00:32:57;100876.25;;;16.46;47.22
69219;BME280;56232;53.384;-2.732;2022-08-21T00:35:26;100873.51;;;16.38;46.74
69219;BME280;56232;53.384;-2.732;2022-08-21T00:37:48;100871.38;;;17.45;46.17
69219;BME280;56232;53.384;-2.732;2022-08-21T00:40:17;100866.05;;;16.26;45.33
69219;BME280;56232;53.384;-2.732;2022-08-21T00:42:39;100867.46;;;16.69;45.81
69219;BME280;56232;53.384;-2.732;2022-08-21T00:45:06;100863.66;;;16.14;45.03
69219;BME280;56232;53.384;-2.732;2022-08-21T00:47:30;100860.54;;;16.14;45.04
69219;BME280;56232;53.384;-2.732;2022-08-21T00:49:55;100862.06;;;16.44;44.71
69219;BME280;56232;53.384;-2.732;2022-08-21T00:52:25;100865.13;;;16.43;44.37
69219;BME280;56232;53.384;-2.732;2022-08-21T00:54:48;100867.60;;;16.04;43.73
69219;BME280;56232;53.384;-2.732;2022-08-21T00:57:17;100868.11;;;16.21;43.78
69219;BME280;56232;53.384;-2.732;2022-08-21T00:59:38;100865.34;;;15.79;43.21
69219;BME280;56232;53.384;-2.732;2022-08-21T01:02:06;100864.28;;;16.40;43.44
69219;BME280;56232;53.384;-2.732;2022-08-21T01:04:29;100864.50;;;16.60;43.74
69219;BME280;56232;53.384;-2.732;2022-08-21T01:06:55;100866.57;;;16.24;43.49
69219;BME280;56232;53.384;-2.732;2022-08-21T01:09:20;100870.48;;;16.81;43.41
69219;BME280;56232;53.384;-2.732;2022-08-21T01:11:46;100865.68;;;16.34;42.98
69219;BME280;56232;53.384;-2.732;2022-08-21T01:14:12;100866.76;;;17.33;42.26
69219;BME280;56232;53.384;-2.732;2022-08-21T01:16:38;100873.14;;;16.46;42.19
69219;BME280;56232;53.384;-2.732;2022-08-21T01:19:03;100876.29;;;16.58;42.08
69219;BME280;56232;53.384;-2.732;2022-08-21T01:21:28;100869.98;;;17.14;41.45
69219;BME280;56232;53.384;-2.732;2022-08-21T01:23:55;100862.61;;;17.10;40.26
69219;BME280;56232;53.384;-2.732;2022-08-21T01:26:23;100864.67;;;17.05;40.44
69219;BME280;56232;53.384;-2.732;2022-08-21T01:28:48;100864.94;;;15.92;38.36
69219;BME280;56232;53.384;-2.732;2022-08-21T01:31:10;100865.27;;;17.02;39.49
69219;BME280;56232;53.384;-2.732;2022-08-21T01:33:36;100870.90;;;16.95;39.31
69219;BME280;56232;53.384;-2.732;2022-08-21T01:36:01;100870.30;;;16.37;40.05
69219;BME280;56232;53.384;-2.732;2022-08-21T01:38:27;100868.09;;;16.80;39.03
69219;BME280;56232;53.384;-2.732;2022-08-21T01:40:52;100870.24;;;16.76;38.87
69219;BME280;56232;53.384;-2.732;2022-08-21T01:43:18;100874.13;;;16.68;39.08
69219;BME280;56232;53.384;-2.732;2022-08-21T01:45:43;100876.44;;;16.13;37.96
69219;BME280;56232;53.384;-2.732;2022-08-21T01:48:09;100869.69;;;16.51;37.75
69219;BME280;56232;53.384;-2.732;2022-08-21T01:50:34;100876.73;;;16.52;38.63
69219;BME280;56232;53.384;-2.732;2022-08-21T01:53:00;100884.40;;;16.47;37.00
69219;BME280;56232;53.384;-2.732;2022-08-21T01:55:25;100887.77;;;16.32;37.88
69219;BME280;56232;53.384;-2.732;2022-08-21T01:57:51;100890.00;;;16.86;38.67
69219;BME280;56232;53.384;-2.732;2022-08-21T02:00:19;100909.97;;;16.22;38.36
69219;BME280;56232;53.384;-2.732;2022-08-21T02:02:42;100901.39;;;16.16;37.53
69219;BME280;56232;53.384;-2.732;2022-08-21T02:05:09;100903.46;;;15.38;37.98
69219;BME280;56232;53.384;-2.732;2022-08-21T02:07:36;100902.00;;;15.64;38.82
69219;BME280;56232;53.384;-2.732;2022-08-21T02:09:59;100901.66;;;15.55;39.97
69219;BME280;56232;53.384;-2.732;2022-08-21T02:12:24;100902.25;;;15.38;39.44
69219;BME280;56232;53.384;-2.732;2022-08-21T02:14:50;100904.55;;;15.18;39.64
69219;BME280;56232;53.384;-2.732;2022-08-21T02:17:16;100908.86;;;15.58;38.73
69219;BME280;56232;53.384;-2.732;2022-08-21T02:19:41;100909.77;;;15.16;39.71
69219;BME280;56232;53.384;-2.732;2022-08-21T02:22:08;100904.49;;;14.80;40.02
69219;BME280;56232;53.384;-2.732;2022-08-21T02:24:32;100903.04;;;15.59;40.45
69219;BME280;56232;53.384;-2.732;2022-08-21T02:26:58;100903.51;;;14.74;40.80
69219;BME280;56232;53.384;-2.732;2022-08-21T02:29:24;100901.84;;;15.43;40.87
69219;BME280;56232;53.384;-2.732;2022-08-21T02:31:49;100903.89;;;15.68;41.04
69219;BME280;56232;53.384;-2.732;2022-08-21T02:34:16;100903.72;;;16.42;40.62
69219;BME280;56232;53.384;-2.732;2022-08-21T02:36:40;100903.46;;;15.44;40.34
69219;BME280;56232;53.384;-2.732;2022-08-21T02:39:06;100903.07;;;15.97;40.58
69219;BME280;56232;53.384;-2.732;2022-08-21T02:41:32;100901.20;;;15.96;40.59
69219;BME280;56232;53.384;-2.732;2022-08-21T02:43:57;100901.93;;;15.53;38.24
69219;BME280;56232;53.384;-2.732;2022-08-21T02:46:22;100896.13;;;15.96;39.08
69219;BME280;56232;53.384;-2.732;2022-08-21T02:48:48;100886.76;;;15.32;39.17
69219;BME280;56232;53.384;-2.732;2022-08-21T02:51:18;100885.98;;;15.13;39.22
69219;BME280;56232;53.384;-2.732;2022-08-21T02:53:40;100886.08;;;14.92;39.61
69219;BME280;56232;53.384;-2.732;2022-08-21T02:56:08;100889.96;;;14.67;40.01
69219;BME280;56232;53.384;-2.732;2022-08-21T02:58:33;100893.09;;;14.94;39.18
69219;BME280;56232;53.384;-2.732;2022-08-21T03:00:57;100892.16;;;14.76;39.30
69219;BME280;56232;53.384;-2.732;2022-08-21T03:03:22;100890.49;;;15.22;39.53
69219;BME280;56232;53.384;-2.732;2022-08-21T03:05:48;100885.59;;;14.64;40.21
69219;BME280;56232;53.384;-2.732;2022-08-21T03:08:15;100890.00;;;14.69;39.36
69219;BME280;56232;53.384;-2.732;2022-08-21T03:10:42;100895.29;;;14.82;39.97
69219;BME280;56232;53.384;-2.732;2022-08-21T03:13:04;100887.21;;;15.20;40.00
69219;BME280;56232;53.384;-2.732;2022-08-21T03:15:30;100892.61;;;15.97;40.37
69219;BME280;56232;53.384;-2.732;2022-08-21T03:17:56;100894.65;;;15.43;40.56
69219;BME280;56232;53.384;-2.732;2022-08-21T03:20:23;100893.28;;;15.00;40.58
69219;BME280;56232;53.384;-2.732;2022-08-21T03:22:46;100889.47;;;15.06;40.05
69219;BME280;56232;53.384;-2.732;2022-08-21T03:25:12;100890.45;;;15.45;39.40
69219;BME280;56232;53.384;-2.732;2022-08-21T03:27:37;100896.48;;;14.83;39.42
69219;BME280;56232;53.384;-2.732;2022-08-21T03:30:04;100899.13;;;14.93;39.63
69219;BME280;56232;53.384;-2.732;2022-08-21T03:32:28;100899.42;;;15.63;39.61
69219;BME280;56232;53.384;-2.732;2022-08-21T03:34:53;100891.58;;;15.85;39.56
69219;BME280;56232;53.384;-2.732;2022-08-21T03:37:19;100892.09;;;15.97;39.02
69219;BME280;56232;53.384;-2.732;2022-08-21T03:39:44;100894.00;;;15.89;39.07
69219;BME280;56232;53.384;-2.732;2022-08-21T03:42:10;100899.58;;;15.76;38.77
69219;BME280;56232;53.384;-2.732;2022-08-21T03:44:35;100895.60;;;15.62;38.86
69219;BME280;56232;53.384;-2.732;2022-08-21T03:47:02;100898.95;;;15.47;38.54
69219;BME280;56232;53.384;-2.732;2022-08-21T03:49:27;100900.79;;;15.15;38.08
69219;BME280;56232;53.384;-2.732;2022-08-21T03:51:52;100902.32;;;15.57;37.35
69219;BME280;56232;53.384;-2.732;2022-08-21T03:54:18;100903.79;;;15.34;37.96
69219;BME280;56232;53.384;-2.732;2022-08-21T03:56:44;100905.43;;;15.30;38.21
69219;BME280;56232;53.384;-2.732;2022-08-21T03:59:09;100902.81;;;15.21;37.25
69219;BME280;56232;53.384;-2.732;2022-08-21T04:01:35;100904.41;;;14.46;37.38
69219;BME280;56232;53.384;-2.732;2022-08-21T04:04:01;100905.69;;;15.04;37.42
69219;BME280;56232;53.384;-2.732;2022-08-21T04:06:26;100910.36;;;14.47;37.64
69219;BME280;56232;53.384;-2.732;2022-08-21T04:08:52;100907.86;;;15.12;37.14
69219;BME280;56232;53.384;-2.732;2022-08-21T04:11:18;100900.48;;;14.98;37.07
69219;BME280;56232;53.384;-2.732;2022-08-21T04:13:43;100900.59;;;15.37;36.86
69219;BME280;56232;53.384;-2.732;2022-08-21T04:16:09;100910.46;;;15.20;37.31
69219;BME280;56232;53.384;-2.732;2022-08-21T04:18:34;100911.91;;;14.69;36.83
69219;BME280;56232;53.384;-2.732;2022-08-21T04:21:02;100909.67;;;14.57;36.64
69219;BME280;56232;53.384;-2.732;2022-08-21T04:23:25;100913.44;;;13.94;37.04
69219;BME280;56232;53.384;-2.732;2022-08-21T04:25:52;100913.16;;;13.90;37.10
69219;BME280;56232;53.384;-2.732;2022-08-21T04:28:17;100914.41;;;14.49;36.78
69219;BME280;56232;53.384;-2.732;2022-08-21T04:30:42;100918.23;;;13.85;36.63
69219;BME280;56232;53.384;-2.732;2022-08-21T04:33:08;100911.80;;;14.51;36.92
69219;BME280;56232;53.384;-2.732;2022-08-21T04:35:34;100914.17;;;14.64;37.11
69219;BME280;56232;53.384;-2.732;2022-08-21T04:37:59;100915.56;;;14.66;36.86
69219;BME280;56232;53.384;-2.732;2022-08-21T04:40:27;100923.09;;;15.13;36.94
69219;BME280;56232;53.384;-2.732;2022-08-21T04:42:53;100928.07;;;14.58;37.02
69219;BME280;56232;53.384;-2.732;2022-08-21T04:45:19;100924.29;;;14.95;37.12
69219;BME280;56232;53.384;-2.732;2022-08-21T04:47:41;100924.25;;;15.49;37.04
69219;BME280;56232;53.384;-2.732;2022-08-21T04:50:08;100929.09;;;14.35;36.93
69219;BME280;56232;53.384;-2.732;2022-08-21T04:52:33;100938.35;;;14.31;36.83
69219;BME280;56232;53.384;-2.732;2022-08-21T04:54:58;100942.54;;;14.48;36.73
69219;BME280;56232;53.384;-2.732;2022-08-21T04:57:24;100945.96;;;14.70;36.65
69219;BME280;56232;53.384;-2.732;2022-08-21T04:59:51;100940.06;;;14.81;36.74
69219;BME280;56232;53.384;-2.732;2022-08-21T05:02:17;100939.41;;;14.27;36.47
69219;BME280;56232;53.384;-2.732;2022-08-21T05:04:44;100945.06;;;14.19;36.53
69219;BME280;56232;53.384;-2.732;2022-08-21T05:07:12;100952.08;;;14.72;36.34
69219;BME280;56232;53.384;-2.732;2022-08-21T05:09:33;100952.96;;;14.72;36.54
69219;BME280;56232;53.384;-2.732;2022-08-21T05:11:58;100957.95;;;15.26;36.34
69219;BME280;56232;53.384;-2.732;2022-08-21T05:14:24;100957.27;;;14.82;36.39
69219;BME280;56232;53.384;-2.732;2022-08-21T05:16:49;100958.99;;;14.81;35.94
69219;BME280;56232;53.384;-2.732;2022-08-21T05:19:16;100957.14;;;14.88;36.04
69219;BME280;56232;53.384;-2.732;2022-08-21T05:21:43;100953.89;;;15.02;36.09
69219;BME280;56232;53.384;-2.732;2022-08-21T05:24:07;100955.30;;;14.45;36.02
69219;BME280;56232;53.384;-2.732;2022-08-21T05:26:32;100961.28;;;14.99;35.88
69219;BME280;56232;53.384;-2.732;2022-08-21T05:28:57;100958.97;;;14.90;35.69
69219;BME280;56232;53.384;-2.732;2022-08-21T05:31:23;100960.36;;;15.33;35.59
69219;BME280;56232;53.384;-2.732;2022-08-21T05:33:49;100959.32;;;14.70;35.54
69219;BME280;56232;53.384;-2.732;2022-08-21T05:36:16;100959.45;;;14.53;35.46
69219;BME280;56232;53.384;-2.732;2022-08-21T05:38:40;100956.60;;;14.44;35.37
69219;BME280;56232;53.384;-2.732;2022-08-21T05:41:06;100957.35;;;14.83;35.30
69219;BME280;56232;53.384;-2.732;2022-08-21T05:43:31;100962.85;;;14.33;35.21
69219;BME280;56232;53.384;-2.732;2022-08-21T05:45:57;100964.13;;;14.34;35.22
69219;BME280;56232;53.384;-2.732;2022-08-21T05:48:24;100976.02;;;14.63;35.11
69219;BME280;56232;53.384;-2.732;2022-08-21T05:50:50;100977.95;;;15.09;34.82
69219;BME280;56232;53.384;-2.732;2022-08-21T05:53:16;100975.32;;;15.91;34.86
69219;BME280;56232;53.384;-2.732;2022-08-21T05:55:40;100975.60;;;15.47;35.05
69219;BME280;56232;53.384;-2.732;2022-08-21T05:58:05;100978.36;;;15.01;34.95
69219;BME280;56232;53.384;-2.732;2022-08-21T06:00:31;100982.23;;;15.28;34.77
69219;BME280;56232;53.384;-2.732;2022-08-21T06:02:56;100979.94;;;15.51;34.75
69219;BME280;56232;53.384;-2.732;2022-08-21T06:05:22;100979.82;;;15.28;34.58
69219;BME280;56232;53.384;-2.732;2022-08-21T06:07:47;100981.05;;;16.54;34.54
69219;BME280;56232;53.384;-2.732;2022-08-21T06:10:13;100985.59;;;16.20;34.44
69219;BME280;56232;53.384;-2.732;2022-08-21T06:12:39;100983.19;;;16.53;34.44
69219;BME280;56232;53.384;-2.732;2022-08-21T06:15:05;100990.12;;;16.26;34.52
69219;BME280;56232;53.384;-2.732;2022-08-21T06:17:30;100989.51;;;15.63;34.35
69219;BME280;56232;53.384;-2.732;2022-08-21T06:19:56;100989.35;;;16.19;34.05
69219;BME280;56232;53.384;-2.732;2022-08-21T06:22:21;100990.70;;;16.69;33.99
69219;BME280;56232;53.384;-2.732;2022-08-21T06:24:47;100994.57;;;16.97;34.10
69219;BME280;56232;53.384;-2.732;2022-08-21T06:27:13;100992.00;;;17.05;34.25
69219;BME280;56232;53.384;-2.732;2022-08-21T06:29:38;100992.85;;;16.92;34.05
69219;BME280;56232;53.384;-2.732;2022-08-21T06:32:05;100997.11;;;16.69;34.28
69219;BME280;56232;53.384;-2.732;2022-08-21T06:34:30;101008.30;;;16.54;34.43
69219;BME280;56232;53.384;-2.732;2022-08-21T06:36:55;101014.75;;;16.53;34.50
69219;BME280;56232;53.384;-2.732;2022-08-21T06:39:21;101015.76;;;17.30;34.38
69219;BME280;56232;53.384;-2.732;2022-08-21T06:41:47;101013.50;;;17.61;34.38
69219;BME280;56232;53.384;-2.732;2022-08-21T06:44:16;101012.33;;;17.12;34.31
69219;BME280;56232;53.384;-2.732;2022-08-21T06:46:38;101009.59;;;17.09;34.27
69219;BME280;56232;53.384;-2.732;2022-08-21T06:49:03;101009.05;;;17.10;34.19
69219;BME280;56232;53.384;-2.732;2022-08-21T06:51:29;101006.30;;;17.71;34.15
69219;BME280;56232;53.384;-2.732;2022-08-21T06:53:54;101003.61;;;17.70;33.89
69219;BME280;56232;53.384;-2.732;2022-08-21T06:56:20;101009.34;;;21.47;31.17
69219;BME280;56232;53.384;-2.732;2022-08-21T06:58:46;101008.91;;;25.32;29.11
69219;BME280;56232;53.384;-2.732;2022-08-21T07:01:11;101011.16;;;27.50;27.78
69219;BME280;56232;53.384;-2.732;2022-08-21T07:03:39;101009.05;;;28.64;26.20
69219;BME280;56232;53.384;-2.732;2022-08-21T07:06:03;101012.20;;;30.16;25.02
69219;BME280;56232;53.384;-2.732;2022-08-21T07:08:28;101017.68;;;32.59;23.50
69219;BME280;56232;53.384;-2.732;2022-08-21T07:10:54;101018.26;;;33.38;21.84
69219;BME280;56232;53.384;-2.732;2022-08-21T07:13:18;101017.02;;;35.74;20.62
69219;BME280;56232;53.384;-2.732;2022-08-21T07:15:44;101022.84;;;36.05;19.37
69219;BME280;56232;53.384;-2.732;2022-08-21T07:18:10;101022.91;;;36.87;18.40
69219;BME280;56232;53.384;-2.732;2022-08-21T07:20:35;101027.85;;;35.22;18.59
69219;BME280;56232;53.384;-2.732;2022-08-21T07:23:05;101035.13;;;34.25;18.30
69219;BME280;56232;53.384;-2.732;2022-08-21T07:25:31;101044.41;;;32.80;19.00
69219;BME280;56232;53.384;-2.732;2022-08-21T07:27:51;101045.52;;;32.23;19.06
69219;BME280;56232;53.384;-2.732;2022-08-21T07:30:17;101044.42;;;32.73;18.96
69219;BME280;56232;53.384;-2.732;2022-08-21T07:32:42;101048.49;;;32.81;19.25
69219;BME280;56232;53.384;-2.732;2022-08-21T07:35:08;101046.65;;;32.28;19.13
69219;BME280;56232;53.384;-2.732;2022-08-21T07:37:33;101043.84;;;31.55;19.10
69219;BME280;56232;53.384;-2.732;2022-08-21T07:39:59;101041.80;;;32.32;16.97
69219;BME280;56232;53.384;-2.732;2022-08-21T07:42:24;101044.85;;;29.86;17.35
69219;BME280;56232;53.384;-2.732;2022-08-21T07:44:50;101040.22;;;29.10;17.37
69219;BME280;56232;53.384;-2.732;2022-08-21T07:47:16;101039.56;;;28.27;17.97
69219;BME280;56232;53.384;-2.732;2022-08-21T07:49:41;101038.10;;;29.57;17.90
69219;BME280;56232;53.384;-2.732;2022-08-21T07:52:06;101044.39;;;31.29;16.33
69219;BME280;56232;53.384;-2.732;2022-08-21T07:54:32;101046.26;;;32.60;15.43
69219;BME280;56232;53.384;-2.732;2022-08-21T07:56:57;101051.93;;;34.77;14.64
69219;BME280;56232;53.384;-2.732;2022-08-21T07:59:23;101057.51;;;35.24;14.18
69219;BME280;56232;53.384;-2.732;2022-08-21T08:01:48;101063.24;;;33.47;14.85
69219;BME280;56232;53.384;-2.732;2022-08-21T08:04:14;101068.91;;;30.77;16.16
69219;BME280;56232;53.384;-2.732;2022-08-21T08:06:39;101061.09;;;28.33;16.95
69219;BME280;56232;53.384;-2.732;2022-08-21T08:09:05;101061.08;;;27.58;18.22
69219;BME280;56232;53.384;-2.732;2022-08-21T08:11:31;101061.08;;;25.78;19.12
69219;BME280;56232;53.384;-2.732;2022-08-21T08:13:56;101066.12;;;25.40;20.13
69219;BME280;56232;53.384;-2.732;2022-08-21T08:16:21;101063.98;;;24.49;20.94
69219;BME280;56232;53.384;-2.732;2022-08-21T08:18:47;101068.09;;;23.20;21.75
69219;BME280;56232;53.384;-2.732;2022-08-21T08:21:13;101068.05;;;23.39;22.15
69219;BME280;56232;53.384;-2.732;2022-08-21T08:23:38;101068.31;;;24.75;21.96
69219;BME280;56232;53.384;-2.732;2022-08-21T08:26:04;101066.50;;;23.65;21.84
69219;BME280;56232;53.384;-2.732;2022-08-21T08:28:30;101065.74;;;24.37;21.91
69219;BME280;56232;53.384;-2.732;2022-08-21T08:30:55;101064.84;;;24.66;22.03
69219;BME280;56232;53.384;-2.732;2022-08-21T08:33:21;101069.03;;;24.28;22.34
69219;BME280;56232;53.384;-2.732;2022-08-21T08:35:47;101069.87;;;24.99;21.63
69219;BME280;56232;53.384;-2.732;2022-08-21T08:38:11;101076.32;;;26.59;20.79
69219;BME280;56232;53.384;-2.732;2022-08-21T08:40:46;101077.03;;;27.09;20.20
69219;BME280;56232;53.384;-2.732;2022-08-21T08:43:02;101083.58;;;27.13;19.78
69219;BME280;56232;53.384;-2.732;2022-08-21T08:45:30;101085.17;;;27.05;20.26
69219;BME280;56232;53.384;-2.732;2022-08-21T08:47:56;101084.86;;;27.35;19.84
69219;BME280;56232;53.384;-2.732;2022-08-21T08:50:22;101089.09;;;28.06;19.42
69219;BME280;56232;53.384;-2.732;2022-08-21T08:52:48;101088.59;;;28.26;19.08
69219;BME280;56232;53.384;-2.732;2022-08-21T08:55:13;101089.01;;;30.98;17.91
69219;BME280;56232;53.384;-2.732;2022-08-21T08:57:37;101086.99;;;31.35;18.07
69219;BME280;56232;53.384;-2.732;2022-08-21T09:00:05;101089.08;;;29.29;18.13
69219;BME280;56232;53.384;-2.732;2022-08-21T09:02:26;101097.61;;;27.95;18.85
69219;BME280;56232;53.384;-2.732;2022-08-21T09:04:52;101100.12;;;26.69;19.83
69219;BME280;56232;53.384;-2.732;2022-08-21T09:07:25;101102.75;;;26.31;20.91
69219;BME280;56232;53.384;-2.732;2022-08-21T09:09:54;101104.56;;;25.97;21.09
69219;BME280;56232;53.384;-2.732;2022-08-21T09:12:14;101101.48;;;25.15;21.48
69219;BME280;56232;53.384;-2.732;2022-08-21T09:14:48;101096.05;;;25.28;21.97
69219;BME280;56232;53.384;-2.732;2022-08-21T09:17:09;101101.05;;;24.20;21.96
69219;BME280;56232;53.384;-2.732;2022-08-21T09:19:36;101101.01;;;24.72;22.66
69219;BME280;56232;53.384;-2.732;2022-08-21T09:21:58;101104.85;;;23.85;22.65
69219;BME280;56232;53.384;-2.732;2022-08-21T09:24:25;101105.04;;;24.30;22.89
69219;BME280;56232;53.384;-2.732;2022-08-21T09:26:47;101107.01;;;24.74;22.84
69219;BME280;56232;53.384;-2.732;2022-08-21T09:29:10;101101.21;;;23.96;22.66
69219;BME280;56232;53.384;-2.732;2022-08-21T09:31:35;101100.94;;;24.08;22.72
69219;BME280;56232;53.384;-2.732;2022-08-21T09:34:00;101100.72;;;24.96;22.64
69219;BME280;56232;53.384;-2.732;2022-08-21T09:36:28;101105.23;;;25.44;22.33
69219;BME280;56232;53.384;-2.732;2022-08-21T09:38:52;101098.80;;;24.94;22.38
69219;BME280;56232;53.384;-2.732;2022-08-21T09:41:25;101096.34;;;25.03;22.35
69219;BME280;56232;53.384;-2.732;2022-08-21T09:46:09;101095.49;;;25.96;21.18
69219;BME280;56232;53.384;-2.732;2022-08-21T09:48:39;101099.31;;;26.65;20.99
69219;BME280;56232;53.384;-2.732;2022-08-21T09:51:06;101093.62;;;26.53;20.48
69219;BME280;56232;53.384;-2.732;2022-08-21T09:53:25;101096.23;;;27.17;20.61
69219;BME280;56232;53.384;-2.732;2022-08-21T09:55:52;101095.89;;;26.20;21.40
69219;BME280;56232;53.384;-2.732;2022-08-21T09:58:15;101100.19;;;25.85;22.22
69219;BME280;56232;53.384;-2.732;2022-08-21T10:00:39;101100.15;;;26.30;21.62
69219;BME280;56232;53.384;-2.732;2022-08-21T10:03:11;101099.22;;;27.71;20.53
69219;BME280;56232;53.384;-2.732;2022-08-21T10:05:30;101096.44;;;27.61;20.21
69219;BME280;56232;53.384;-2.732;2022-08-21T10:07:56;101094.75;;;27.59;20.74
69219;BME280;56232;53.384;-2.732;2022-08-21T10:10:25;101098.26;;;25.90;21.31
69219;BME280;56232;53.384;-2.732;2022-08-21T10:12:53;101099.14;;;25.74;21.55
69219;BME280;56232;53.384;-2.732;2022-08-21T10:15:20;101093.78;;;27.34;20.02
69219;BME280;56232;53.384;-2.732;2022-08-21T10:17:44;101094.83;;;28.47;19.43
69219;BME280;56232;53.384;-2.732;2022-08-21T10:20:06;101098.46;;;30.65;18.39
69219;BME280;56232;53.384;-2.732;2022-08-21T10:22:38;101097.10;;;31.84;17.36
69219;BME280;56232;53.384;-2.732;2022-08-21T10:25:00;101093.57;;;32.88;16.38
69219;BME280;56232;53.384;-2.732;2022-08-21T10:27:28;101096.95;;;33.36;15.66
69219;BME280;56232;53.384;-2.732;2022-08-21T10:29:51;101102.90;;;33.63;15.54
69219;BME280;56232;53.384;-2.732;2022-08-21T10:32:23;101098.70;;;34.40;15.48
69219;BME280;56232;53.384;-2.732;2022-08-21T10:34:43;101104.94;;;34.54;14.69
69219;BME280;56232;53.384;-2.732;2022-08-21T10:37:11;101107.59;;;35.93;14.64
69219;BME280;56232;53.384;-2.732;2022-08-21T10:39:31;101105.65;;;35.70;14.63
69219;BME280;56232;53.384;-2.732;2022-08-21T10:42:07;101103.98;;;36.02;15.04
69219;BME280;56232;53.384;-2.732;2022-08-21T10:44:25;101100.07;;;35.04;14.70
69219;BME280;56232;53.384;-2.732;2022-08-21T10:46:50;101095.69;;;34.94;15.74
69219;BME280;56232;53.384;-2.732;2022-08-21T10:49:18;101095.36;;;35.28;16.03
69219;BME280;56232;53.384;-2.732;2022-08-21T10:51:40;101097.25;;;32.56;17.04
69219;BME280;56232;53.384;-2.732;2022-08-21T10:54:05;101100.06;;;29.93;18.42
69219;BME280;56232;53.384;-2.732;2022-08-21T10:56:29;101094.01;;;29.08;19.80
69219;BME280;56232;53.384;-2.732;2022-08-21T10:59:02;101095.92;;;28.62;20.62
69219;BME280;56232;53.384;-2.732;2022-08-21T11:01:23;101097.66;;;27.72;21.64
69219;BME280;56232;53.384;-2.732;2022-08-21T11:03:45;101091.45;;;27.76;21.98
69219;BME280;56232;53.384;-2.732;2022-08-21T11:06:13;101096.55;;;26.59;22.76
69219;BME280;56232;53.384;-2.732;2022-08-21T11:08:37;101104.89;;;26.52;23.46
69219;BME280;56232;53.384;-2.732;2022-08-21T11:11:02;101103.06;;;25.34;24.47
69219;BME280;56232;53.384;-2.732;2022-08-21T11:13:30;101097.15;;;25.61;25.66
69219;BME280;56232;53.384;-2.732;2022-08-21T11:15:56;101090.40;;;25.89;25.62
69219;BME280;56232;53.384;-2.732;2022-08-21T11:18:22;101091.38;;;25.35;26.18
69219;BME280;56232;53.384;-2.732;2022-08-21T11:20:46;101089.93;;;25.07;26.66
69219;BME280;56232;53.384;-2.732;2022-08-21T11:23:11;101087.05;;;24.77;26.32
69219;BME280;56232;53.384;-2.732;2022-08-21T11:25:35;101092.43;;;24.97;26.77
69219;BME280;56232;53.384;-2.732;2022-08-21T11:28:02;101099.43;;;24.94;26.65
69219;BME280;56232;53.384;-2.732;2022-08-21T11:30:26;101096.26;;;24.93;26.29
69219;BME280;56232;53.384;-2.732;2022-08-21T11:33:01;101094.91;;;26.20;27.35
69219;BME280;56232;53.384;-2.732;2022-08-21T11:35:22;101094.20;;;25.77;27.29
69219;BME280;56232;53.384;-2.732;2022-08-21T11:37:50;101102.52;;;25.45;27.75
69219;BME280;56232;53.384;-2.732;2022-08-21T11:40:11;101102.38;;;25.30;28.33
69219;BME280;56232;53.384;-2.732;2022-08-21T11:42:37;101101.67;;;24.65;28.54
69219;BME280;56232;53.384;-2.732;2022-08-21T11:45:06;101096.27;;;25.13;28.27
69219;BME280;56232;53.384;-2.732;2022-08-21T11:47:30;101096.63;;;25.64;29.10
69219;BME280;56232;53.384;-2.732;2022-08-21T11:49:58;101095.77;;;25.25;28.01
69219;BME280;56232;53.384;-2.732;2022-08-21T11:52:18;101094.56;;;25.37;28.37
69219;BME280;56232;53.384;-2.732;2022-08-21T11:54:42;101093.12;;;26.00;27.36
69219;BME280;56232;53.384;-2.732;2022-08-21T11:57:05;101098.01;;;25.33;28.56
69219;BME280;56232;53.384;-2.732;2022-08-21T11:59:47;101096.93;;;25.85;28.86
69219;BME280;56232;53.384;-2.732;2022-08-21T12:01:55;101089.72;;;27.14;28.62
69219;BME280;56232;53.384;-2.732;2022-08-21T12:04:26;101095.92;;;26.34;28.01
69219;BME280;56232;53.384;-2.732;2022-08-21T12:06:46;101096.15;;;26.56;28.16
69219;BME280;56232;53.384;-2.732;2022-08-21T12:11:45;101091.01;;;26.29;28.44
69219;BME280;56232;53.384;-2.732;2022-08-21T12:14:12;101093.31;;;26.44;27.73
69219;BME280;56232;53.384;-2.732;2022-08-21T12:16:30;101093.51;;;26.11;28.69
69219;BME280;56232;53.384;-2.732;2022-08-21T12:21:22;101096.77;;;26.57;28.17
69219;BME280;56232;53.384;-2.732;2022-08-21T12:23:48;101096.10;;;26.60;27.03
69219;BME280;56232;53.384;-2.732;2022-08-21T12:28:35;101102.30;;;25.69;29.06
69219;BME280;56232;53.384;-2.732;2022-08-21T12:31:01;101106.05;;;25.82;29.63
69219;BME280;56232;53.384;-2.732;2022-08-21T12:33:30;101107.84;;;25.74;28.23
69219;BME280;56232;53.384;-2.732;2022-08-21T12:36:00;101103.88;;;26.68;27.16
69219;BME280;56232;53.384;-2.732;2022-08-21T12:38:20;101106.29;;;27.28;27.22
69219;BME280;56232;53.384;-2.732;2022-08-21T12:40:46;101098.56;;;26.96;27.73